createdAt,value
2022-12-23T00:01:23.054Z,69.16
2022-12-23T00:03:50.872Z,68.97
2022-12-23T00:06:19.596Z,69.64
2022-12-23T00:08:47.014Z,69.85
2022-12-23T00:11:18.187Z,69.19
2022-12-23T00:14:04.535Z,69.38
2022-12-23T00:16:31.993Z,69.18
2022-12-23T00:18:59.044Z,69.46
2022-12-23T00:21:26.042Z,69.09
2022-12-23T00:23:53.059Z,69.40
2022-12-23T00:26:23.534Z,69.50
2022-12-23T00:28:51.265Z,69.25
2022-12-23T00:31:19.545Z,69.80
2022-12-23T00:33:48.264Z,69.56
2022-12-23T00:36:28.541Z,69.47
2022-12-23T00:39:18.540Z,69.79
2022-12-23T00:42:04.207Z,69.74
2022-12-23T00:44:31.279Z,70.12
2022-12-23T00:46:58.447Z,69.75
2022-12-23T00:49:43.595Z,69.76
2022-12-23T00:52:13.829Z,69.69
2022-12-23T00:54:41.353Z,70.51
2022-12-23T00:57:08.397Z,70.63
2022-12-23T00:59:35.522Z,70.92
2022-12-23T01:02:21.327Z,71.10
2022-12-23T01:05:06.855Z,71.34
2022-12-23T01:07:33.917Z,71.25
2022-12-23T01:10:00.925Z,70.95
2022-12-23T01:12:28.643Z,71.09
2022-12-23T01:14:55.634Z,71.12
2022-12-23T01:17:22.730Z,71.04
2022-12-23T01:19:49.895Z,71.25
2022-12-23T01:22:16.936Z,70.52
2022-12-23T01:24:44.073Z,70.67
2022-12-23T01:27:11.068Z,70.88
2022-12-23T01:29:38.119Z,70.70
2022-12-23T01:32:05.293Z,70.67
2022-12-23T01:34:36.750Z,70.20
2022-12-23T01:37:05.573Z,70.33
2022-12-23T01:39:32.952Z,70.40
2022-12-23T01:42:18.649Z,70.41
2022-12-23T01:44:51.468Z,70.45
2022-12-23T01:47:27.869Z,70.78
2022-12-23T01:50:01.958Z,69.86
2022-12-23T01:52:33.041Z,70.17
2022-12-23T01:55:00.123Z,70.37
2022-12-23T01:57:27.256Z,69.97
2022-12-23T02:00:13.320Z,70.45
2022-12-23T02:03:01.354Z,70.36
2022-12-23T02:05:28.858Z,70.26
2022-12-23T02:08:14.849Z,70.47
2022-12-23T02:11:11.902Z,70.36
2022-12-23T02:14:07.352Z,70.72
2022-12-23T02:16:53.748Z,70.69
2022-12-23T02:19:49.838Z,71.07
2022-12-23T02:22:25.434Z,71.09
2022-12-23T02:25:43.476Z,71.47
2022-12-23T02:28:25.707Z,70.84
2022-12-23T02:31:09.708Z,70.89
2022-12-23T02:33:50.684Z,70.91
2022-12-23T02:36:41.531Z,70.84
2022-12-23T02:39:45.232Z,70.78
2022-12-23T02:42:17.439Z,70.37
2022-12-23T02:44:52.902Z,70.20
2022-12-23T02:47:25.052Z,69.80
2022-12-23T02:49:55.981Z,70.52
2022-12-23T02:52:29.705Z,70.42
2022-12-23T02:55:06.541Z,70.55
2022-12-23T02:57:37.559Z,70.61
2022-12-23T03:00:06.734Z,70.93
2022-12-23T03:02:39.820Z,71.21
2022-12-23T03:05:23.643Z,71.17
2022-12-23T03:07:53.549Z,70.78
2022-12-23T03:10:50.630Z,70.06
2022-12-23T03:13:37.723Z,70.39
2022-12-23T03:16:07.804Z,70.52
2022-12-23T03:19:02.528Z,70.60
2022-12-23T03:21:39.955Z,71.39
2022-12-23T03:24:20.957Z,70.96
2022-12-23T03:27:06.761Z,70.17
2022-12-23T03:29:42.833Z,70.70
2022-12-23T03:32:13.220Z,70.80
2022-12-23T03:34:45.357Z,70.68
2022-12-23T03:37:16.102Z,70.92
2022-12-23T03:39:53.100Z,70.51
2022-12-23T03:42:28.784Z,69.66
2022-12-23T03:45:36.537Z,69.96
2022-12-23T03:47:59.766Z,70.42
2022-12-23T03:50:28.784Z,70.71
2022-12-23T03:53:03.165Z,70.08
2022-12-23T03:55:41.427Z,70.20
2022-12-23T03:58:28.703Z,69.75
2022-12-23T04:01:02.267Z,70.11
2022-12-23T04:03:42.260Z,69.97
2022-12-23T04:06:14.537Z,70.18
2022-12-23T04:08:43.949Z,70.44
2022-12-23T04:11:12.004Z,70.48
2022-12-23T04:13:39.117Z,70.74
2022-12-23T04:16:07.845Z,70.83
2022-12-23T04:18:34.916Z,70.84
2022-12-23T04:21:01.916Z,70.72
2022-12-23T04:23:29.306Z,70.92
2022-12-23T04:25:56.262Z,70.59
2022-12-23T04:28:23.291Z,70.32
2022-12-23T04:30:50.253Z,70.58
2022-12-23T04:33:17.217Z,70.98
2022-12-23T04:35:44.253Z,70.57
2022-12-23T04:38:11.281Z,71.01
2022-12-23T04:40:38.416Z,70.89
2022-12-23T04:43:05.375Z,70.24
2022-12-23T04:45:32.859Z,70.63
2022-12-23T04:47:59.983Z,70.19
2022-12-23T04:50:27.037Z,70.72
2022-12-23T04:52:54.054Z,70.88
2022-12-23T04:55:21.383Z,70.26
2022-12-23T04:57:48.399Z,69.55
2022-12-23T05:00:16.055Z,70.59
2022-12-23T05:02:43.313Z,70.34
2022-12-23T05:05:10.653Z,70.04
2022-12-23T05:07:37.658Z,70.04
2022-12-23T05:10:04.946Z,69.96
2022-12-23T05:12:32.032Z,70.10
2022-12-23T05:14:59.178Z,70.26
2022-12-23T05:17:26.241Z,71.09
2022-12-23T05:19:53.264Z,70.93
2022-12-23T05:22:20.303Z,70.49
2022-12-23T05:24:47.471Z,70.60
2022-12-23T05:27:14.464Z,70.91
2022-12-23T05:29:41.536Z,71.12
2022-12-23T05:32:08.680Z,70.45
2022-12-23T05:34:35.682Z,70.02
2022-12-23T05:37:02.640Z,70.62
2022-12-23T05:39:29.806Z,70.52
2022-12-23T05:41:56.863Z,70.67
2022-12-23T05:44:23.904Z,70.10
2022-12-23T05:46:50.985Z,70.16
2022-12-23T05:49:18.031Z,70.27
2022-12-23T05:51:45.042Z,70.25
2022-12-23T05:54:12.053Z,70.80
2022-12-23T05:56:39.083Z,70.42
2022-12-23T05:59:06.069Z,69.56
2022-12-23T06:01:33.174Z,69.73
2022-12-23T06:04:00.284Z,70.27
2022-12-23T06:06:27.439Z,69.71
2022-12-23T06:08:59.350Z,70.08
2022-12-23T06:11:26.977Z,70.24
2022-12-23T06:13:53.982Z,70.74
2022-12-23T06:16:21.160Z,71.05
2022-12-23T06:18:48.281Z,71.22
2022-12-23T06:21:15.289Z,71.01
2022-12-23T06:23:42.251Z,70.94
2022-12-23T06:26:09.261Z,70.84
2022-12-23T06:28:36.281Z,70.80
2022-12-23T06:31:03.238Z,70.61
2022-12-23T06:33:30.254Z,70.55
2022-12-23T06:35:57.407Z,70.74
2022-12-23T06:38:24.746Z,70.48
2022-12-23T06:40:51.780Z,70.81
2022-12-23T06:43:18.988Z,70.47
2022-12-23T06:45:49.745Z,70.32
2022-12-23T06:48:17.793Z,70.36
2022-12-23T06:50:44.902Z,70.44
2022-12-23T06:53:12.175Z,70.78
2022-12-23T06:55:39.449Z,70.94
2022-12-23T06:58:06.465Z,70.54
2022-12-23T07:00:33.764Z,70.52
2022-12-23T07:03:01.262Z,70.19
2022-12-23T07:05:34.870Z,70.42
2022-12-23T07:08:03.952Z,70.73
2022-12-23T07:10:31.011Z,70.42
2022-12-23T07:12:58.057Z,70.48
2022-12-23T07:15:25.080Z,70.48
2022-12-23T07:17:52.121Z,70.54
2022-12-23T07:20:19.274Z,70.29
2022-12-23T07:22:46.516Z,69.92
2022-12-23T07:25:13.843Z,70.43
2022-12-23T07:27:40.978Z,70.24
2022-12-23T07:30:08.692Z,70.41
2022-12-23T07:32:35.784Z,69.83
2022-12-23T07:35:02.946Z,70.90
2022-12-23T07:37:31.303Z,71.37
2022-12-23T07:40:00.046Z,71.09
2022-12-23T07:42:45.128Z,70.35
2022-12-23T07:45:13.460Z,70.59
2022-12-23T07:47:43.019Z,70.24
2022-12-23T07:50:10.458Z,70.59
2022-12-23T07:52:37.921Z,70.66
2022-12-23T07:55:05.716Z,70.71
2022-12-23T07:57:37.982Z,70.21
2022-12-23T08:00:07.392Z,70.22
2022-12-23T08:02:40.589Z,70.01
2022-12-23T08:05:08.561Z,69.86
2022-12-23T08:07:36.191Z,70.30
2022-12-23T08:10:04.424Z,69.79
2022-12-23T08:12:31.521Z,70.16
2022-12-23T08:14:58.741Z,70.33
2022-12-23T08:17:30.636Z,70.09
2022-12-23T08:19:57.677Z,69.95
2022-12-23T08:22:25.125Z,70.46
2022-12-23T08:24:52.806Z,69.98
2022-12-23T08:27:19.871Z,69.84
2022-12-23T08:29:47.013Z,70.29
2022-12-23T08:32:14.209Z,70.28
2022-12-23T08:34:41.183Z,70.48
2022-12-23T08:37:08.196Z,70.66
2022-12-23T08:39:36.591Z,70.32
2022-12-23T08:42:04.036Z,69.90
2022-12-23T08:44:32.741Z,70.85
2022-12-23T08:47:00.217Z,71.01
2022-12-23T08:49:27.266Z,70.47
2022-12-23T08:51:54.370Z,71.35
2022-12-23T08:54:22.348Z,70.46
2022-12-23T08:56:49.469Z,70.82
2022-12-23T08:59:19.510Z,70.30
2022-12-23T09:01:48.327Z,70.73
2022-12-23T09:04:15.991Z,70.93
2022-12-23T09:06:43.429Z,70.82
2022-12-23T09:09:12.866Z,70.06
2022-12-23T09:11:40.024Z,70.04
2022-12-23T09:14:10.325Z,70.20
2022-12-23T09:16:37.711Z,70.66
2022-12-23T09:19:05.002Z,70.56
2022-12-23T09:21:32.275Z,70.51
2022-12-23T09:23:59.310Z,70.76
2022-12-23T09:26:29.021Z,70.61
2022-12-23T09:28:57.319Z,71.19
2022-12-23T09:31:27.850Z,71.17
2022-12-23T09:33:59.540Z,71.04
2022-12-23T09:36:26.611Z,70.79
2022-12-23T09:38:57.569Z,71.79
2022-12-23T09:41:50.757Z,71.19
2022-12-23T09:44:59.739Z,71.03
2022-12-23T09:47:29.938Z,72.08
2022-12-23T09:50:10.964Z,72.18
2022-12-23T09:52:50.045Z,73.00
2022-12-23T09:55:19.118Z,73.34
2022-12-23T09:57:53.310Z,72.92
2022-12-23T10:00:21.943Z,72.60
2022-12-23T10:02:54.899Z,72.79
2022-12-23T10:05:35.596Z,72.48
2022-12-23T10:08:07.529Z,72.31
2022-12-23T10:10:42.704Z,72.64
2022-12-23T10:13:29.856Z,72.75
2022-12-23T10:16:03.537Z,72.69
2022-12-23T10:18:48.064Z,72.62
2022-12-23T10:21:24.807Z,72.83
2022-12-23T10:23:54.425Z,73.78
2022-12-23T10:26:29.523Z,73.05
2022-12-23T10:29:05.985Z,72.80
2022-12-23T10:32:00.378Z,73.33
2022-12-23T10:35:01.630Z,72.98
2022-12-23T10:37:33.147Z,72.16
2022-12-23T10:40:19.692Z,72.26
2022-12-23T10:43:09.863Z,71.93
2022-12-23T10:45:55.297Z,72.17
2022-12-23T10:49:00.397Z,72.63
2022-12-23T10:51:36.824Z,72.27
2022-12-23T10:54:10.494Z,72.52
2022-12-23T10:56:37.929Z,72.84
2022-12-23T10:59:07.514Z,73.14
2022-12-23T11:01:34.836Z,73.22
2022-12-23T11:04:01.872Z,73.19
2022-12-23T11:06:35.009Z,72.86
2022-12-23T11:09:05.768Z,72.71
2022-12-23T11:12:02.389Z,72.55
2022-12-23T11:14:42.421Z,72.29
2022-12-23T11:17:25.338Z,72.97
2022-12-23T11:20:10.654Z,73.46
2022-12-23T11:22:49.740Z,73.17
2022-12-23T11:25:37.822Z,73.05
2022-12-23T11:28:13.789Z,72.83
2022-12-23T11:30:55.133Z,72.67
2022-12-23T11:33:26.067Z,72.77
2022-12-23T11:36:08.792Z,73.24
2022-12-23T11:38:47.315Z,72.37
2022-12-23T11:41:29.647Z,73.11
2022-12-23T11:44:01.398Z,73.26
2022-12-23T11:46:32.760Z,72.70
2022-12-23T11:49:28.845Z,72.97
2022-12-23T11:52:02.068Z,72.34
2022-12-23T11:54:29.715Z,72.77
2022-12-23T11:56:57.693Z,72.27
2022-12-23T11:59:27.980Z,73.17
2022-12-23T12:01:58.445Z,72.85
2022-12-23T12:04:27.733Z,73.00
2022-12-23T12:06:56.781Z,73.26
2022-12-23T12:09:25.028Z,74.05
2022-12-23T12:11:58.903Z,73.49
2022-12-23T12:14:37.233Z,74.10
2022-12-23T12:17:20.685Z,74.07
2022-12-23T12:19:59.529Z,73.59
2022-12-23T12:22:45.272Z,73.66
2022-12-23T12:25:24.122Z,73.41
2022-12-23T12:28:00.086Z,73.98
2022-12-23T12:30:34.893Z,73.12
2022-12-23T12:33:35.867Z,73.65
2022-12-23T12:36:12.247Z,73.83
2022-12-23T12:38:40.504Z,74.07
2022-12-23T12:41:23.025Z,73.70
2022-12-23T12:44:15.830Z,73.58
2022-12-23T12:46:48.933Z,73.96
2022-12-23T12:49:41.283Z,74.77
2022-12-23T12:52:13.290Z,74.40
2022-12-23T12:54:48.498Z,73.99
2022-12-23T12:57:18.332Z,74.44
2022-12-23T12:59:48.268Z,74.21
2022-12-23T13:02:46.254Z,74.60
2022-12-23T13:05:54.087Z,74.18
2022-12-23T13:08:36.705Z,74.51
2022-12-23T13:11:28.751Z,74.65
2022-12-23T13:13:58.778Z,74.49
2022-12-23T13:16:55.132Z,74.40
2022-12-23T13:19:27.399Z,74.42
2022-12-23T13:22:10.328Z,75.10
2022-12-23T13:25:04.213Z,74.86
2022-12-23T13:27:52.978Z,74.28
2022-12-23T13:30:23.919Z,74.12
2022-12-23T13:33:06.958Z,73.76
2022-12-23T13:35:48.900Z,73.68
2022-12-23T13:38:53.070Z,73.85
2022-12-23T13:41:27.538Z,73.39
2022-12-23T13:43:58.397Z,73.17
2022-12-23T13:46:51.580Z,72.89
2022-12-23T13:49:55.159Z,73.73
2022-12-23T13:52:50.368Z,73.64
2022-12-23T13:55:36.008Z,72.96
2022-12-23T13:58:17.532Z,73.37
2022-12-23T14:00:45.149Z,72.49
2022-12-23T14:03:22.599Z,72.62
2022-12-23T14:05:51.076Z,72.54
2022-12-23T14:08:20.859Z,72.81
2022-12-23T14:10:50.912Z,71.99
2022-12-23T14:13:18.750Z,72.74
2022-12-23T14:15:56.209Z,73.11
2022-12-23T14:18:36.268Z,73.47
2022-12-23T14:21:16.137Z,72.82
2022-12-23T14:23:46.209Z,72.22
2022-12-23T14:26:19.363Z,72.83
2022-12-23T14:28:52.340Z,73.00
2022-12-23T14:32:01.116Z,72.51
2022-12-23T14:34:33.847Z,72.89
2022-12-23T14:37:24.278Z,72.52
2022-12-23T14:39:52.142Z,72.91
2022-12-23T14:42:40.497Z,72.87
2022-12-23T14:45:43.863Z,72.25
2022-12-23T14:48:37.125Z,72.17
2022-12-23T14:51:10.564Z,72.07
2022-12-23T14:54:00.202Z,72.57
2022-12-23T14:56:39.891Z,72.20
2022-12-23T14:59:07.984Z,71.77
2022-12-23T15:01:47.018Z,72.07
2022-12-23T15:04:14.377Z,72.56
2022-12-23T15:07:05.098Z,72.71
2022-12-23T15:09:37.800Z,72.76
2022-12-23T15:12:15.353Z,72.83
2022-12-23T15:14:47.430Z,72.99
2022-12-23T15:17:33.824Z,72.87
2022-12-23T15:20:10.095Z,72.63
2022-12-23T15:22:42.453Z,72.95
2022-12-23T15:25:31.766Z,72.62
2022-12-23T15:28:02.223Z,72.33
2022-12-23T15:30:35.133Z,72.33
2022-12-23T15:33:11.942Z,72.16
2022-12-23T15:35:53.400Z,72.62
2022-12-23T15:38:22.509Z,72.49
2022-12-23T15:41:01.525Z,72.89
2022-12-23T15:43:28.980Z,72.66
2022-12-23T15:46:30.192Z,72.66
2022-12-23T15:48:58.527Z,73.05
2022-12-23T15:52:05.050Z,73.39
2022-12-23T15:54:25.387Z,72.84
2022-12-23T15:56:54.274Z,72.77
2022-12-23T15:59:25.859Z,72.67
2022-12-23T16:01:53.800Z,72.52
2022-12-23T16:04:26.932Z,72.52
2022-12-23T16:06:54.904Z,72.72
2022-12-23T16:09:30.262Z,72.34
2022-12-23T16:12:21.992Z,72.70
2022-12-23T16:14:59.296Z,72.67
2022-12-23T16:17:37.505Z,71.98
2022-12-23T16:20:24.197Z,72.81
2022-12-23T16:22:58.828Z,73.30
2022-12-23T16:25:33.977Z,73.59
2022-12-23T16:28:13.014Z,73.80
2022-12-23T16:30:44.569Z,73.33
2022-12-23T16:33:30.348Z,73.26
2022-12-23T16:36:26.431Z,72.71
2022-12-23T16:39:00.185Z,72.77
2022-12-23T16:41:27.257Z,71.83
2022-12-23T16:43:54.300Z,72.57
2022-12-23T16:46:23.353Z,72.75
2022-12-23T16:48:55.557Z,73.00
2022-12-23T16:51:24.064Z,73.01
2022-12-23T16:53:55.390Z,73.14
2022-12-23T16:56:27.043Z,73.45
2022-12-23T16:58:54.241Z,73.66
2022-12-23T17:01:21.303Z,74.09
2022-12-23T17:03:48.447Z,73.93
2022-12-23T17:06:19.298Z,73.75
2022-12-23T17:08:47.140Z,73.74
2022-12-23T17:11:16.826Z,73.97
2022-12-23T17:13:44.762Z,73.99
2022-12-23T17:16:20.067Z,74.39
2022-12-23T17:18:48.712Z,74.24
2022-12-23T17:21:22.555Z,75.09
2022-12-23T17:23:52.093Z,74.94
2022-12-23T17:26:20.123Z,74.36
2022-12-23T17:28:47.136Z,74.29
2022-12-23T17:31:18.101Z,74.81
2022-12-23T17:33:47.995Z,74.73
2022-12-23T17:36:16.668Z,74.57
2022-12-23T17:38:43.696Z,74.66
2022-12-23T17:41:23.493Z,74.70
2022-12-23T17:43:50.673Z,74.42
2022-12-23T17:46:18.054Z,74.64
2022-12-23T17:48:47.089Z,75.37
2022-12-23T17:51:19.803Z,74.97
2022-12-23T17:53:53.130Z,75.30
2022-12-23T17:56:26.552Z,75.48
2022-12-23T17:58:54.074Z,75.05
2022-12-23T18:01:32.613Z,74.94
2022-12-23T18:04:00.893Z,75.14
2022-12-23T18:06:29.478Z,74.73
2022-12-23T18:08:57.522Z,74.98
2022-12-23T18:11:30.712Z,75.17
2022-12-23T18:13:57.846Z,74.70
2022-12-23T18:16:24.939Z,74.39
2022-12-23T18:18:52.990Z,74.35
2022-12-23T18:21:26.475Z,74.36
2022-12-23T18:23:58.896Z,74.33
2022-12-23T18:26:26.388Z,73.97
2022-12-23T18:28:54.442Z,73.84
2022-12-23T18:31:27.391Z,73.41
2022-12-23T18:33:55.091Z,73.71
2022-12-23T18:36:27.447Z,73.78
2022-12-23T18:38:55.242Z,73.41
2022-12-23T18:41:23.505Z,73.62
2022-12-23T18:43:52.052Z,72.92
2022-12-23T18:46:23.065Z,73.90
2022-12-23T18:48:51.920Z,73.31
2022-12-23T18:51:21.728Z,73.59
2022-12-23T18:53:49.290Z,73.48
2022-12-23T18:56:20.263Z,72.95
2022-12-23T18:58:47.675Z,72.88
2022-12-23T19:01:17.513Z,73.38
2022-12-23T19:03:45.108Z,72.90
2022-12-23T19:06:14.089Z,72.52
2022-12-23T19:08:42.866Z,72.65
2022-12-23T19:11:18.895Z,72.08
2022-12-23T19:13:46.471Z,72.43
2022-12-23T19:16:16.519Z,71.94
2022-12-23T19:19:09.340Z,72.19
2022-12-23T19:21:36.544Z,71.89
2022-12-23T19:24:17.143Z,72.10
2022-12-23T19:26:44.559Z,71.65
2022-12-23T19:29:15.329Z,72.26
2022-12-23T19:31:42.784Z,72.35
2022-12-23T19:34:14.988Z,72.24
2022-12-23T19:36:43.982Z,72.69
2022-12-23T19:39:16.818Z,72.66
2022-12-23T19:41:44.495Z,72.69
2022-12-23T19:44:11.713Z,72.19
2022-12-23T19:46:38.756Z,72.42
2022-12-23T19:49:06.030Z,72.10
2022-12-23T19:51:33.215Z,71.96
2022-12-23T19:54:00.212Z,71.75
2022-12-23T19:56:29.387Z,71.86
2022-12-23T19:58:56.680Z,72.00
2022-12-23T20:01:49.228Z,72.00
2022-12-23T20:04:16.313Z,71.62
2022-12-23T20:06:43.383Z,72.27
2022-12-23T20:09:13.127Z,72.25
2022-12-23T20:11:42.653Z,71.79
2022-12-23T20:14:10.282Z,72.14
2022-12-23T20:16:38.900Z,72.35
2022-12-23T20:19:06.901Z,71.63
2022-12-23T20:21:35.658Z,72.01
2022-12-23T20:24:02.910Z,71.47
2022-12-23T20:26:30.448Z,71.83
2022-12-23T20:28:57.799Z,71.60
2022-12-23T20:31:27.614Z,71.49
2022-12-23T20:33:55.836Z,71.92
2022-12-23T20:36:26.822Z,71.73
2022-12-23T20:38:54.010Z,71.50
2022-12-23T20:41:23.999Z,72.00
2022-12-23T20:44:31.764Z,72.05
2022-12-23T20:46:39.029Z,71.91
2022-12-23T20:49:06.145Z,71.61
2022-12-23T20:51:33.147Z,71.50
2022-12-23T20:54:01.112Z,71.43
2022-12-23T20:56:30.514Z,71.23
2022-12-23T20:59:33.422Z,71.96
2022-12-23T21:02:14.698Z,71.60
2022-12-23T21:04:41.991Z,71.19
2022-12-23T21:07:09.542Z,71.83
2022-12-23T21:09:36.626Z,71.70
2022-12-23T21:12:04.082Z,71.63
2022-12-23T21:14:31.535Z,72.19
2022-12-23T21:16:58.655Z,71.36
2022-12-23T21:19:26.252Z,71.25
2022-12-23T21:21:53.848Z,70.78
2022-12-23T21:24:21.237Z,71.22
2022-12-23T21:26:55.626Z,71.24
2022-12-23T21:29:23.502Z,71.34
2022-12-23T21:31:50.687Z,71.21
2022-12-23T21:34:18.142Z,71.01
2022-12-23T21:36:45.230Z,70.97
2022-12-23T21:39:16.710Z,71.04
2022-12-23T21:41:44.421Z,70.99
2022-12-23T21:44:14.558Z,70.80
2022-12-23T21:46:41.852Z,70.61
2022-12-23T21:49:09.569Z,70.81
2022-12-23T21:51:40.681Z,70.35
2022-12-23T21:54:10.746Z,70.29
2022-12-23T21:56:38.374Z,70.23
2022-12-23T21:59:14.245Z,70.16
2022-12-23T22:01:43.159Z,70.05
2022-12-23T22:04:11.100Z,70.86
2022-12-23T22:06:43.851Z,71.05
2022-12-23T22:09:15.718Z,70.44
2022-12-23T22:11:43.303Z,71.05
2022-12-23T22:14:12.486Z,70.27
2022-12-23T22:16:39.573Z,70.04
2022-12-23T22:19:08.772Z,70.64
2022-12-23T22:21:37.180Z,70.97
2022-12-23T22:24:04.924Z,70.56
2022-12-23T22:26:33.409Z,70.29
2022-12-23T22:29:03.762Z,70.74
2022-12-23T22:31:42.276Z,70.28
2022-12-23T22:34:13.663Z,70.84
2022-12-23T22:36:40.820Z,70.55
2022-12-23T22:39:08.334Z,70.76
2022-12-23T22:41:35.514Z,70.82
2022-12-23T22:44:02.712Z,70.26
2022-12-23T22:46:30.779Z,70.31
2022-12-23T22:48:59.007Z,70.48
2022-12-23T22:51:29.242Z,70.40
2022-12-23T22:53:56.709Z,69.50
2022-12-23T22:56:25.204Z,70.21
2022-12-23T22:58:53.622Z,69.68
2022-12-23T23:01:22.604Z,69.69
2022-12-23T23:03:56.951Z,69.28
2022-12-23T23:06:27.114Z,69.75
2022-12-23T23:08:55.821Z,69.86
2022-12-23T23:11:24.095Z,70.03
2022-12-23T23:13:51.435Z,70.09
2022-12-23T23:16:18.712Z,69.92
2022-12-23T23:18:45.853Z,70.86
2022-12-23T23:21:13.899Z,70.74
2022-12-23T23:23:41.090Z,70.54
2022-12-23T23:26:11.051Z,71.36
2022-12-23T23:28:39.603Z,71.38
2022-12-23T23:31:40.589Z,70.72
2022-12-23T23:33:54.779Z,70.85
2022-12-23T23:36:21.870Z,70.64
2022-12-23T23:38:48.884Z,70.79
2022-12-23T23:41:20.676Z,70.78
2022-12-23T23:43:50.116Z,71.59
2022-12-23T23:46:17.274Z,71.21
2022-12-23T23:48:44.301Z,70.85
2022-12-23T23:51:12.745Z,71.41
2022-12-23T23:53:40.458Z,71.18
2022-12-23T23:56:08.486Z,71.58
2022-12-23T23:58:36.844Z,71.64
